Time;durP1;ratioP1;P1;durP2;ratioP2;P2;SDS_P1;SDS_P2;PMS_P1;PMS_P2;Temp;Humidity;BMP_temperature;BMP_pressure;BME280_temperature;BME280_humidity;BME280_pressure;Samples;Min_cycle;Max_cycle;Signal;HPM_P1;HPM_P2
2022/12/17 13:07:04;;;;;;;8.35;5.53;;;;;;;12.88;75.91;94651.91;4199221;28;20883;-60
2022/12/17 13:09:15;;;;;;;9.55;6.45;;;;;;;12.66;76.94;94646.44;4176526;28;21876;-62
2022/12/17 13:11:36;;;;;;;13.13;8.07;;;;;;;12.52;77.81;94641.09;4202294;28;20129;-60
2022/12/17 13:13:54;;;;;;;11.40;6.53;;;;;;;12.40;77.81;94638.84;4199140;28;20049;-60
2022/12/17 13:16:21;;;;;;;12.48;6.80;;;;;;;12.31;78.19;94636.47;4182789;28;20056;-62
2022/12/17 13:18:31;;;;;;;10.57;5.57;;;;;;;12.08;78.06;94622.25;4156161;28;20053;-61
2022/12/17 13:20:33;;;;;;;10.82;6.35;;;;;;;12.19;78.39;94636.81;4175939;28;20101;-60
2022/12/17 13:22:35;;;;;;;10.30;6.28;;;;;;;12.35;78.12;94643.00;4186628;28;20052;-59
2022/12/17 13:24:37;;;;;;;9.38;6.05;;;;;;;12.45;77.33;94623.41;4173127;28;20095;-61
2022/12/17 13:26:38;;;;;;;8.45;5.50;;;;;;;12.53;77.02;94637.50;4201590;28;20209;-59
2022/12/17 13:28:40;;;;;;;11.27;6.78;;;;;;;12.65;76.64;94659.78;4209444;28;20136;-62
2022/12/17 13:30:42;;;;;;;8.45;5.40;;;;;;;12.74;75.86;94660.53;4193174;28;20044;-61
2022/12/17 13:32:57;;;;;;;12.13;6.15;;;;;;;12.85;76.00;94662.78;4211746;28;20060;-60
2022/12/17 13:35:16;;;;;;;9.65;6.05;;;;;;;12.96;75.80;94651.84;4209704;28;20055;-61
2022/12/17 13:37:41;;;;;;;10.70;6.75;;;;;;;13.01;75.35;94653.94;4184404;28;20084;-61
2022/12/17 13:39:59;;;;;;;11.75;6.88;;;;;;;12.97;75.48;94652.66;4206705;28;20055;-61
2022/12/17 13:42:01;;;;;;;13.43;9.00;;;;;;;12.82;75.27;94658.69;4164774;28;20061;-59
2022/12/17 13:44:20;;;;;;;13.90;8.80;;;;;;;12.78;76.00;94675.78;4176615;28;20099;-58
2022/12/17 13:46:23;;;;;;;12.80;8.23;;;;;;;12.82;75.89;94665.72;4180333;28;20521;-60
2022/12/17 13:48:28;;;;;;;10.67;7.97;;;;;;;12.84;76.09;94667.22;4202073;28;20091;-58
2022/12/17 13:50:30;;;;;;;13.48;8.10;;;;;;;12.84;76.04;94674.25;4184329;28;20346;-61
2022/12/17 13:52:35;;;;;;;17.88;10.27;;;;;;;12.91;76.35;94667.34;4205470;28;20086;-63
2022/12/17 13:54:37;;;;;;;21.65;11.68;;;;;;;12.89;75.83;94664.06;4206845;28;20091;-63
2022/12/17 13:56:39;;;;;;;22.23;10.25;;;;;;;12.93;75.81;94662.72;4190889;28;20071;-61
2022/12/17 13:58:41;;;;;;;17.63;10.02;;;;;;;12.96;75.68;94667.63;4200642;28;20060;-61
2022/12/17 14:00:43;;;;;;;15.73;10.00;;;;;;;13.04;75.61;94669.38;4192893;28;20189;-62
2022/12/17 14:02:45;;;;;;;13.18;6.90;;;;;;;13.08;75.34;94655.72;4205634;28;20099;-58
2022/12/17 14:04:52;;;;;;;8.98;5.95;;;;;;;13.06;75.51;94659.53;4208187;28;20153;-60
2022/12/17 14:06:58;;;;;;;9.85;6.30;;;;;;;13.06;75.43;94686.63;4208701;28;20060;-61
2022/12/17 14:09:01;;;;;;;10.35;6.07;;;;;;;13.05;75.38;94681.53;4206785;28;20101;-61
2022/12/17 14:13:23;;;;;;;11.40;6.18;;;;;;;12.57;76.63;94679.00;4188587;28;20052;-61
2022/12/17 14:15:27;;;;;;;10.93;6.90;;;;;;;12.55;77.35;94691.50;4165328;28;20148;-59
2022/12/17 14:17:46;;;;;;;10.30;6.90;;;;;;;12.60;77.55;94704.13;4188289;28;20057;-58
2022/12/17 14:19:53;;;;;;;16.15;5.78;;;;;;;12.64;77.12;94708.88;4171089;28;20175;-61
2022/12/17 14:21:55;;;;;;;8.75;5.57;;;;;;;12.65;76.89;94696.56;4194603;28;20115;-61
2022/12/17 14:23:57;;;;;;;11.65;6.68;;;;;;;12.55;77.46;94694.13;4165424;28;20060;-59
2022/12/17 14:25:58;;;;;;;11.23;6.82;;;;;;;12.58;77.38;94701.66;4181970;28;20465;-62
2022/12/17 14:28:03;;;;;;;11.98;8.40;;;;;;;12.63;77.43;94701.97;4182159;28;20087;-61
2022/12/17 14:30:21;;;;;;;13.88;7.95;;;;;;;12.55;77.54;94703.84;4204785;28;20101;-59
2022/12/17 14:32:25;;;;;;;11.07;7.13;;;;;;;12.52;77.45;94707.63;4177499;28;20078;-61
2022/12/17 14:34:28;;;;;;;10.25;5.60;;;;;;;12.47;77.42;94705.47;4167848;28;20087;-60
2022/12/17 14:36:31;;;;;;;9.07;6.30;;;;;;;12.40;77.93;94703.72;4193903;28;20056;-60
2022/12/17 14:38:33;;;;;;;8.18;5.72;;;;;;;12.40;78.01;94703.72;4193468;28;20167;-62
2022/12/17 14:40:40;;;;;;;10.60;6.57;;;;;;;12.42;78.17;94704.38;4176550;28;20122;-60
2022/12/17 14:42:41;;;;;;;10.05;5.93;;;;;;;12.48;77.65;94708.94;4194311;28;20079;-60
2022/12/17 14:45:12;;;;;;;11.85;7.20;;;;;;;12.42;77.41;94712.25;4194252;28;20125;-59
2022/12/17 14:47:27;;;;;;;10.48;6.88;;;;;;;12.38;78.08;94724.09;4150489;28;20512;-59
2022/12/17 14:49:29;;;;;;;15.48;7.00;;;;;;;12.37;78.03;94725.06;4182304;28;20057;-60
2022/12/17 14:51:34;;;;;;;14.52;7.70;;;;;;;12.33;78.23;94721.16;4182765;28;20242;-61
2022/12/17 14:53:36;;;;;;;13.88;8.55;;;;;;;12.34;78.10;94736.72;4190095;28;20114;-61
2022/12/17 14:55:50;;;;;;;11.27;8.35;;;;;;;12.37;78.00;94735.56;4193629;28;20082;-63
2022/12/17 14:58:11;;;;;;;13.02;7.97;;;;;;;12.37;77.84;94728.53;4178429;28;20081;-65
2022/12/17 15:00:13;;;;;;;14.05;8.40;;;;;;;12.39;77.91;94723.09;4177889;28;20056;-61
2022/12/17 15:02:19;;;;;;;14.98;9.85;;;;;;;12.41;78.08;94729.00;4189996;28;20109;-60
2022/12/17 15:04:22;;;;;;;15.45;9.13;;;;;;;12.41;78.04;94734.25;4162034;28;20045;-61
2022/12/17 15:06:28;;;;;;;15.30;8.90;;;;;;;12.42;77.64;94733.28;4175728;28;20061;-60
2022/12/17 15:08:35;;;;;;;13.88;8.75;;;;;;;12.41;77.66;94729.00;4194305;28;20056;-64
2022/12/17 15:10:37;;;;;;;15.20;8.05;;;;;;;12.37;77.56;94740.81;4185985;28;20064;-64
2022/12/17 15:12:47;;;;;;;23.40;15.30;;;;;;;12.29;77.72;94729.38;4188274;27;20426;-60
2022/12/17 15:14:49;;;;;;;18.65;11.73;;;;;;;12.24;77.77;94749.25;4179072;28;20053;-61
2022/12/17 15:16:51;;;;;;;16.13;10.98;;;;;;;12.16;78.20;94751.91;4172917;28;20045;-60
2022/12/17 15:18:53;;;;;;;17.15;10.43;;;;;;;12.11;78.34;94743.69;4174134;28;20140;-59
2022/12/17 15:20:54;;;;;;;18.70;11.25;;;;;;;12.07;78.80;94756.34;4172371;28;20129;-60
2022/12/17 15:22:56;;;;;;;16.67;10.73;;;;;;;12.05;78.41;94750.44;4173768;28;20096;-60
2022/12/17 15:24:58;;;;;;;17.75;9.98;;;;;;;12.06;78.57;94765.19;4173655;28;20065;-59
2022/12/17 15:26:59;;;;;;;17.10;11.10;;;;;;;12.09;78.42;94759.63;4173430;28;20053;-60
2022/12/17 15:29:01;;;;;;;17.23;10.40;;;;;;;12.00;78.36;94757.97;4173692;28;20053;-58
2022/12/17 15:31:03;;;;;;;16.27;10.68;;;;;;;11.95;78.43;94768.97;4173565;28;20057;-62
2022/12/17 15:33:06;;;;;;;17.17;10.73;;;;;;;11.96;78.80;94760.13;4174044;28;20052;-59
2022/12/17 15:35:09;;;;;;;17.73;10.18;;;;;;;11.99;78.56;94766.84;4171927;28;20068;-59
2022/12/17 15:37:11;;;;;;;23.65;14.82;;;;;;;11.77;78.90;94768.31;4172381;28;20057;-61
2022/12/17 15:39:12;;;;;;;25.13;16.60;;;;;;;11.62;79.87;94766.34;4172210;28;20060;-60
2022/12/17 15:43:34;;;;;;;19.25;13.90;;;;;;;11.81;79.88;94772.25;4162184;28;20076;-60
2022/12/17 15:45:40;;;;;;;23.95;14.45;;;;;;;11.87;79.35;94769.78;4181345;28;20210;-60
2022/12/17 15:47:41;;;;;;;23.52;13.75;;;;;;;11.94;79.51;94769.13;4167673;28;20060;-60
2022/12/17 15:49:44;;;;;;;25.17;14.35;;;;;;;11.96;78.46;94770.63;4171722;28;20512;-61
2022/12/17 15:51:45;;;;;;;20.27;13.90;;;;;;;11.94;78.07;94777.84;4166576;28;20049;-61
2022/12/17 15:53:47;;;;;;;20.38;13.50;;;;;;;11.96;78.57;94773.25;4166513;28;20053;-61
2022/12/17 15:55:49;;;;;;;23.67;15.98;;;;;;;11.99;78.38;94774.72;4173475;28;20061;-63
2022/12/17 15:57:50;;;;;;;22.42;14.95;;;;;;;12.00;78.03;94782.44;4160144;28;20424;-59
2022/12/17 15:59:52;;;;;;;25.05;15.98;;;;;;;11.96;78.19;94777.66;4172821;28;20215;-61
2022/12/17 16:01:54;;;;;;;21.90;14.23;;;;;;;11.93;78.34;94788.50;4173506;28;20045;-58
2022/12/17 16:03:56;;;;;;;25.90;14.00;;;;;;;11.93;78.30;94791.13;4172879;28;20053;-59
2022/12/17 16:06:00;;;;;;;25.40;14.68;;;;;;;11.92;78.50;94795.56;4171805;28;20103;-60
2022/12/17 16:08:02;;;;;;;22.27;13.75;;;;;;;11.94;78.37;94795.38;4173090;28;20555;-61
2022/12/17 16:10:06;;;;;;;21.40;14.68;;;;;;;11.97;77.98;94800.31;4173082;28;20096;-61
2022/12/17 16:12:08;;;;;;;25.13;14.43;;;;;;;11.96;77.67;94801.28;4172805;28;20053;-60
2022/12/17 16:14:10;;;;;;;22.83;14.93;;;;;;;11.96;77.81;94809.16;4173488;28;20057;-59
2022/12/17 16:16:12;;;;;;;24.80;16.35;;;;;;;11.97;77.71;94808.19;4172703;28;20432;-60
2022/12/17 16:18:15;;;;;;;30.92;19.30;;;;;;;11.98;78.06;94809.84;4173278;28;20049;-59
2022/12/17 16:20:17;;;;;;;34.75;20.00;;;;;;;12.00;77.65;94810.50;4171735;28;20210;-58
2022/12/17 16:22:18;;;;;;;32.25;20.33;;;;;;;12.01;77.43;94810.34;4172577;28;20058;-59
2022/12/17 16:24:20;;;;;;;34.85;21.77;;;;;;;11.99;77.37;94814.94;4161689;28;20438;-59
2022/12/17 16:26:22;;;;;;;34.20;20.00;;;;;;;11.94;77.31;94817.22;4151818;28;20807;-61
2022/12/17 16:28:25;;;;;;;32.95;21.50;;;;;;;11.92;77.41;94831.50;4157584;28;20053;-60
2022/12/17 16:30:26;;;;;;;41.67;23.53;;;;;;;11.89;76.91;94822.13;4160981;28;20057;-59
2022/12/17 16:32:28;;;;;;;38.45;23.63;;;;;;;11.85;76.99;94831.28;4168191;28;20393;-61
2022/12/17 16:34:36;;;;;;;37.00;23.95;;;;;;;11.83;77.34;94831.47;4167317;28;20085;-62
2022/12/17 16:36:38;;;;;;;44.67;27.08;;;;;;;11.82;77.31;94836.88;4160478;28;20439;-58
2022/12/17 16:38:48;;;;;;;40.67;26.23;;;;;;;11.78;76.91;94836.38;4161981;28;20550;-62
2022/12/17 16:40:56;;;;;;;39.00;25.02;;;;;;;11.72;76.98;94837.03;4161839;28;20422;-59
2022/12/17 16:42:58;;;;;;;41.47;27.00;;;;;;;11.69;77.23;94832.13;4161295;28;20152;-59
2022/12/17 16:45:00;;;;;;;47.63;26.27;;;;;;;11.70;77.55;94836.38;4160793;28;20053;-62
2022/12/17 16:47:01;;;;;;;44.60;26.05;;;;;;;11.67;77.36;94834.06;4161908;28;20053;-60
2022/12/17 16:49:10;;;;;;;38.50;25.50;;;;;;;11.67;77.56;94834.06;4161497;28;20057;-59
2022/12/17 16:51:16;;;;;;;40.55;25.95;;;;;;;11.65;77.29;94828.16;4155194;28;20088;-61
2022/12/17 16:53:26;;;;;;;83.55;46.10;;;;;;;11.47;76.96;94839.63;4157506;28;20076;-61
2022/12/17 16:55:28;;;;;;;63.80;38.00;;;;;;;11.41;77.86;94840.25;4161320;28;20049;-62
2022/12/17 16:57:29;;;;;;;48.25;32.72;;;;;;;11.39;77.60;94846.66;4148870;28;20072;-58
2022/12/17 16:59:31;;;;;;;55.50;33.55;;;;;;;11.26;77.79;94850.53;4148118;28;20056;-58
2022/12/17 17:01:33;;;;;;;46.70;29.90;;;;;;;11.25;78.24;94854.16;4161355;28;20077;-59
2022/12/17 17:03:41;;;;;;;47.88;31.67;;;;;;;11.24;78.06;94851.69;4151929;28;20050;-58
2022/12/17 17:05:43;;;;;;;51.78;31.45;;;;;;;11.24;78.17;94863.00;4147420;28;20049;-61
2022/12/17 17:07:44;;;;;;;48.17;30.63;;;;;;;11.27;78.24;94867.09;4165792;28;20136;-62
2022/12/17 17:09:46;;;;;;;44.60;30.20;;;;;;;11.25;78.15;94867.28;4161766;28;20085;-60
2022/12/17 17:11:48;;;;;;;46.65;29.25;;;;;;;11.25;77.54;94866.47;4161341;28;20049;-59
2022/12/17 17:13:53;;;;;;;44.13;29.83;;;;;;;11.26;77.62;94863.66;4149213;28;20053;-62
2022/12/17 17:15:54;;;;;;;45.53;29.88;;;;;;;11.30;77.59;94863.34;4154533;28;20049;-62
2022/12/17 17:17:56;;;;;;;46.83;30.77;;;;;;;11.32;77.54;94872.69;4155449;28;20140;-60
2022/12/17 17:20:02;;;;;;;47.50;31.90;;;;;;;11.36;77.69;94868.78;4145588;28;20054;-61
2022/12/17 17:22:04;;;;;;;48.17;30.25;;;;;;;11.40;77.60;94877.97;4153859;28;20134;-62
2022/12/17 17:24:11;;;;;;;55.95;32.30;;;;;;;11.43;76.95;94885.50;4167746;28;20568;-61
2022/12/17 17:26:21;;;;;;;54.05;34.83;;;;;;;11.42;76.59;94885.66;4165760;28;20080;-60
2022/12/17 17:28:22;;;;;;;53.08;33.65;;;;;;;11.40;77.04;94890.25;4148445;28;20055;-61
2022/12/17 17:30:24;;;;;;;69.15;40.72;;;;;;;11.37;76.72;94880.09;4158997;28;20097;-61
2022/12/17 17:32:26;;;;;;;55.83;35.28;;;;;;;11.40;77.00;94882.38;4158381;28;20124;-63
2022/12/17 17:34:28;;;;;;;52.40;33.15;;;;;;;11.43;76.75;94890.75;4159428;28;20096;-60
2022/12/17 17:36:30;;;;;;;60.20;37.60;;;;;;;11.43;76.37;94888.13;4158581;28;20513;-61
2022/12/17 17:38:33;;;;;;;57.97;36.13;;;;;;;11.41;76.59;94897.97;4160958;28;20064;-60
2022/12/17 17:40:35;;;;;;;;;;;;;;;11.42;76.66;94897.00;4161545;28;20057;-61
2022/12/17 17:42:37;;;;;;;67.55;42.03;;;;;;;11.26;76.39;94900.38;4159617;28;19921;-60
2022/12/17 17:44:38;;;;;;;61.28;39.92;;;;;;;11.14;76.87;94900.81;4160637;28;20065;-60
2022/12/17 17:46:40;;;;;;;56.13;35.58;;;;;;;11.13;77.11;94904.44;4159154;28;20081;-59
2022/12/17 17:48:43;;;;;;;50.00;33.97;;;;;;;11.11;77.44;94907.19;4160315;28;20056;-58
2022/12/17 17:51:08;;;;;;;56.60;36.83;;;;;;;11.08;77.25;94912.78;4159167;28;20057;-61
2022/12/17 17:53:10;;;;;;;;;;;;;;;11.12;77.08;94916.72;4152369;28;20049;-59
2022/12/17 17:55:11;;;;;;;53.30;35.67;;;;;;;11.15;77.21;94919.03;4159813;28;19929;-60
2022/12/17 17:57:13;;;;;;;64.85;40.10;;;;;;;11.15;77.38;94919.03;4160893;28;20063;-62
2022/12/17 17:59:18;;;;;;;86.80;56.65;;;;;;;11.20;77.39;94923.78;4160473;28;20459;-64
2022/12/17 18:01:23;;;;;;;79.68;56.22;;;;;;;11.25;77.33;94918.91;4160649;28;20056;-58
2022/12/17 18:03:28;;;;;;;99.38;70.70;;;;;;;11.24;77.27;94925.94;4169778;28;20068;-61
2022/12/17 18:05:29;;;;;;;114.13;82.15;;;;;;;11.25;77.03;94930.22;4162415;28;20053;-61
2022/12/17 18:07:31;;;;;;;59.55;41.13;;;;;;;11.25;77.21;94939.88;4167170;28;20514;-59
2022/12/17 18:09:33;;;;;;;70.15;46.95;;;;;;;10.47;78.11;94947.75;4150988;28;20084;-60
2022/12/17 18:11:36;;;;;;;53.70;36.20;;;;;;;10.37;79.16;94934.75;4150465;28;20085;-59
2022/12/17 18:13:54;;;;;;;53.17;32.50;;;;;;;10.47;79.86;94955.63;4145217;28;20053;-61
2022/12/17 18:16:00;;;;;;;44.60;30.17;;;;;;;10.34;79.28;94951.56;4160386;28;20053;-59
2022/12/17 18:18:02;;;;;;;55.15;34.10;;;;;;;10.31;79.77;94964.16;4156892;28;20136;-60
2022/12/17 18:20:04;;;;;;;53.58;37.40;;;;;;;10.19;79.87;94963.53;4144639;28;20056;-60
2022/12/17 18:22:06;;;;;;;64.68;44.53;;;;;;;10.15;80.54;94968.25;4144146;28;20053;-62
2022/12/17 18:24:14;;;;;;;61.05;41.22;;;;;;;10.21;80.81;94979.91;4144423;28;20049;-61
2022/12/17 18:26:18;;;;;;;60.53;40.58;;;;;;;10.32;80.70;94971.03;4151829;28;20081;-60
2022/12/17 18:28:19;;;;;;;68.88;42.28;;;;;;;10.41;80.46;94984.06;4172103;28;20477;-61
2022/12/17 18:30:21;;;;;;;63.00;43.00;;;;;;;10.40;79.76;94986.81;4158926;28;20464;-60
2022/12/17 18:32:23;;;;;;;63.88;44.13;;;;;;;10.48;80.00;94986.91;4148994;28;20049;-61
2022/12/17 18:34:28;;;;;;;68.20;44.28;;;;;;;10.54;79.68;94988.91;4159317;28;20418;-62
2022/12/17 18:36:32;;;;;;;66.38;43.15;;;;;;;10.55;79.34;94985.31;4146883;28;20467;-61
2022/12/17 18:38:35;;;;;;;76.03;48.10;;;;;;;10.58;79.37;94995.50;4146766;28;20180;-61
2022/12/17 18:40:37;;;;;;;72.47;46.42;;;;;;;10.62;79.18;94999.44;4160255;28;20041;-60
2022/12/17 18:44:58;;;;;;;54.40;37.05;;;;;;;10.63;79.06;95003.72;4159467;28;20050;-59
2022/12/17 18:47:00;;;;;;;38.47;27.05;;;;;;;10.62;78.61;95014.34;4159860;28;20111;-58
2022/12/17 18:49:05;;;;;;;38.00;24.98;;;;;;;10.62;78.46;95009.91;4150641;28;20091;-59
2022/12/17 18:51:07;;;;;;;35.38;22.55;;;;;;;10.54;78.17;95025.59;4142676;28;20425;-59
2022/12/17 18:53:09;;;;;;;31.05;19.38;;;;;;;10.42;78.24;95016.31;4161035;28;20045;-59
2022/12/17 18:55:10;;;;;;;29.42;19.05;;;;;;;10.35;78.78;95017.91;4158562;28;20502;-62
2022/12/17 18:57:12;;;;;;;25.98;17.50;;;;;;;10.33;79.11;95027.69;4149306;28;20117;-61
2022/12/17 18:59:16;;;;;;;25.70;17.70;;;;;;;10.33;79.16;95023.28;4145068;28;20119;-61
2022/12/17 19:01:29;;;;;;;26.73;17.10;;;;;;;10.35;78.97;95031.81;4154905;28;20053;-60
2022/12/17 19:03:31;;;;;;;24.70;16.33;;;;;;;10.34;79.07;95030.13;4163252;28;20130;-61
2022/12/17 19:05:33;;;;;;;25.80;17.70;;;;;;;10.35;79.07;95036.22;4150774;28;20058;-60
2022/12/17 19:07:35;;;;;;;24.77;17.00;;;;;;;10.32;78.74;95036.50;4174316;28;20094;-60
2022/12/17 19:09:38;;;;;;;26.83;16.95;;;;;;;10.30;79.43;95035.81;4168078;28;20053;-61
2022/12/17 19:11:40;;;;;;;24.48;16.20;;;;;;;10.23;79.15;95041.63;4159466;28;20497;-59
2022/12/17 19:13:45;;;;;;;21.30;15.02;;;;;;;10.21;79.15;95047.97;4159707;28;20049;-58
2022/12/17 19:15:46;;;;;;;22.77;15.57;;;;;;;10.19;79.48;95053.34;4153919;28;20049;-61
2022/12/17 19:17:49;;;;;;;20.55;13.55;;;;;;;10.14;79.77;95063.47;4152134;28;20048;-59
2022/12/17 19:19:51;;;;;;;22.23;13.75;;;;;;;10.12;79.52;95065.41;4145950;28;20065;-61
2022/12/17 19:21:54;;;;;;;20.83;14.10;;;;;;;10.15;79.97;95057.28;4159381;28;20513;-59
2022/12/17 19:23:58;;;;;;;20.88;14.07;;;;;;;10.15;79.32;95066.91;4158937;28;20244;-60
2022/12/17 19:26:07;;;;;;;19.70;13.93;;;;;;;10.10;79.49;95063.91;4158717;28;20497;-59
2022/12/17 19:28:09;;;;;;;23.77;13.00;;;;;;;10.06;79.72;95063.38;4159805;28;20634;-60
2022/12/17 19:30:11;;;;;;;18.52;13.30;;;;;;;10.08;80.26;95069.28;4158272;28;20115;-60
2022/12/17 19:32:12;;;;;;;17.35;12.05;;;;;;;10.08;79.83;95076.31;4147124;28;20045;-59
2022/12/17 19:34:15;;;;;;;18.27;12.35;;;;;;;10.08;79.83;95074.53;4159568;28;20105;-61
2022/12/17 19:36:19;;;;;;;19.40;12.70;;;;;;;10.00;79.73;95077.88;4149559;28;20050;-59
2022/12/17 19:38:28;;;;;;;20.70;13.02;;;;;;;9.94;79.91;95081.09;4159106;28;20585;-60
2022/12/17 19:40:30;;;;;;;25.13;14.32;;;;;;;9.94;79.87;95078.47;4154944;28;20210;-61
2022/12/17 19:42:32;;;;;;;21.10;13.73;;;;;;;10.02;80.46;95077.72;4173477;28;20041;-60
2022/12/17 19:44:38;;;;;;;21.60;13.38;;;;;;;10.01;80.06;95076.09;4152102;28;20542;-59
2022/12/17 19:46:40;;;;;;;17.50;13.48;;;;;;;10.01;79.55;95078.69;4147480;28;20049;-61
2022/12/17 19:48:43;;;;;;;22.30;13.48;;;;;;;9.97;80.17;95074.72;4146135;28;20410;-60
2022/12/17 19:50:58;;;;;;;19.15;13.45;;;;;;;9.94;80.10;95085.50;4144468;28;20045;-57
2022/12/17 19:53:00;;;;;;;17.90;13.65;;;;;;;10.00;80.46;95090.97;4148096;28;20363;-58
2022/12/17 19:55:02;;;;;;;17.23;13.00;;;;;;;10.02;79.97;95088.19;4148728;28;20134;-60
2022/12/17 19:57:03;;;;;;;18.05;12.68;;;;;;;10.00;79.69;95088.34;4163541;28;20169;-60
2022/12/17 19:59:06;;;;;;;17.75;12.65;;;;;;;9.88;80.04;95097.34;4175260;28;20056;-60
2022/12/17 20:01:11;;;;;;;19.48;12.70;;;;;;;9.86;80.07;95099.28;4150062;28;20053;-57
2022/12/17 20:03:12;;;;;;;19.35;12.73;;;;;;;9.92;80.78;95103.13;4148706;28;20112;-57
2022/12/17 20:05:14;;;;;;;18.95;13.20;;;;;;;9.95;80.28;95103.66;4147343;28;20056;-60
2022/12/17 20:07:16;;;;;;;17.85;12.70;;;;;;;9.95;80.17;95113.31;4161851;28;20053;-60
2022/12/17 20:09:18;;;;;;;16.27;12.65;;;;;;;9.95;80.54;95114.13;4157999;28;20053;-61
2022/12/17 20:11:32;;;;;;;16.95;13.38;;;;;;;10.01;80.29;95116.16;4158664;28;20454;-60
2022/12/17 20:13:34;;;;;;;16.55;12.38;;;;;;;10.04;80.09;95118.50;4154585;28;20089;-58
2022/12/17 20:15:36;;;;;;;18.08;13.20;;;;;;;10.05;79.65;95120.13;4155983;28;20441;-59
2022/12/17 20:17:38;;;;;;;20.02;12.70;;;;;;;10.07;79.74;95121.78;4162871;28;20081;-61
2022/12/17 20:19:41;;;;;;;19.98;12.93;;;;;;;10.08;79.62;95126.06;4161552;28;20100;-62
2022/12/17 20:21:42;;;;;;;20.15;13.68;;;;;;;10.14;79.48;95126.28;4161700;28;20128;-61
2022/12/17 20:23:50;;;;;;;20.92;13.90;;;;;;;10.15;79.54;95134.97;4161461;28;20057;-58
2022/12/17 20:26:02;;;;;;;18.75;12.90;;;;;;;10.07;79.22;95134.88;4150416;28;20045;-59
2022/12/17 20:28:04;;;;;;;18.13;12.93;;;;;;;10.10;79.77;95143.25;4152848;28;20062;-58
2022/12/17 20:30:06;;;;;;;16.98;12.95;;;;;;;10.06;79.46;95134.03;4157587;28;20332;-60
2022/12/17 20:32:07;;;;;;;17.20;12.45;;;;;;;10.05;79.31;95148.13;4161907;28;20045;-62
2022/12/17 20:34:11;;;;;;;14.95;11.35;;;;;;;9.98;79.57;95149.63;4162119;28;20104;-61
2022/12/17 20:36:15;;;;;;;17.92;11.85;;;;;;;9.81;79.53;95159.91;4160551;28;20060;-61
2022/12/17 20:38:17;;;;;;;15.98;11.90;;;;;;;9.71;79.23;95153.88;4161706;28;20104;-60
2022/12/17 20:40:18;;;;;;;17.20;12.23;;;;;;;9.71;79.60;95160.91;4167064;28;20381;-61
2022/12/17 20:42:20;;;;;;;18.23;13.77;;;;;;;9.70;79.54;95161.88;4160887;28;20092;-60
2022/12/17 20:44:22;;;;;;;19.35;12.73;;;;;;;9.70;79.46;95167.94;4161539;28;20045;-61
2022/12/17 20:46:24;;;;;;;17.30;12.30;;;;;;;9.70;79.71;95169.72;4155130;28;20058;-59
2022/12/17 20:48:26;;;;;;;18.05;13.73;;;;;;;9.57;79.74;95172.63;4165820;28;20501;-60
2022/12/17 20:50:27;;;;;;;17.00;12.50;;;;;;;9.57;79.62;95172.63;4175983;28;20049;-59
2022/12/17 20:52:29;;;;;;;18.83;12.77;;;;;;;9.58;79.97;95176.91;4161751;28;20057;-59
2022/12/17 20:54:31;;;;;;;18.35;12.80;;;;;;;9.62;79.52;95175.66;4169257;28;20060;-60
2022/12/17 20:56:33;;;;;;;19.20;14.23;;;;;;;9.65;79.81;95180.59;4163094;28;20052;-62
2022/12/17 20:58:36;;;;;;;18.98;13.85;;;;;;;9.73;79.34;95180.72;4159094;28;20478;-60
2022/12/17 21:00:39;;;;;;;18.55;11.95;;;;;;;9.66;79.42;95194.50;4154799;28;20037;-59
2022/12/17 21:02:41;;;;;;;19.33;12.40;;;;;;;9.71;79.51;95185.28;4162026;28;20053;-58
2022/12/17 21:04:43;;;;;;;18.50;12.23;;;;;;;9.67;79.19;95199.59;4156221;28;20149;-58
2022/12/17 21:06:46;;;;;;;18.83;12.63;;;;;;;9.64;78.87;95194.66;4177728;28;20057;-60
2022/12/17 21:08:49;;;;;;;15.73;11.50;;;;;;;9.64;79.23;95199.91;4151151;28;20470;-62
2022/12/17 21:10:55;;;;;;;15.68;11.57;;;;;;;9.52;78.92;95201.00;4160795;28;20057;-59
2022/12/17 21:15:36;;;;;;;16.60;11.82;;;;;;;9.66;78.53;95203.19;4150553;28;20592;-60
2022/12/17 21:17:38;;;;;;;17.05;11.43;;;;;;;9.69;78.41;95204.69;4149778;28;20057;-60
2022/12/17 21:19:40;;;;;;;13.52;9.25;;;;;;;9.67;78.45;95201.41;4142100;28;20092;-59
2022/12/17 21:21:41;;;;;;;14.27;10.15;;;;;;;9.62;78.37;95207.06;4143308;28;20561;-59
2022/12/17 21:23:44;;;;;;;14.35;10.50;;;;;;;9.64;78.08;95207.75;4147447;28;20042;-58
2022/12/17 21:25:46;;;;;;;16.15;9.50;;;;;;;9.55;78.05;95217.25;4147528;28;20507;-60
2022/12/17 21:27:47;;;;;;;13.07;10.30;;;;;;;9.46;77.80;95217.25;4141269;28;20050;-60
2022/12/17 21:29:49;;;;;;;15.85;10.25;;;;;;;9.35;78.13;95221.66;4160667;28;20080;-61
2022/12/17 21:31:51;;;;;;;14.75;9.80;;;;;;;9.38;78.40;95210.13;4146112;28;20088;-60
2022/12/17 21:33:55;;;;;;;13.40;9.88;;;;;;;9.36;77.97;95218.09;4153360;28;20549;-59
2022/12/17 21:36:02;;;;;;;14.35;9.57;;;;;;;9.39;78.81;95217.81;4140239;28;20046;-59
2022/12/17 21:38:08;;;;;;;14.00;9.95;;;;;;;9.38;77.48;95224.03;4141364;28;20159;-60
2022/12/17 21:40:11;;;;;;;14.00;10.17;;;;;;;9.40;77.51;95224.72;4157707;28;20156;-60
2022/12/17 21:44:33;;;;;;;13.65;10.05;;;;;;;9.36;78.22;95230.34;4157727;28;20081;-57
2022/12/17 21:46:35;;;;;;;12.57;9.25;;;;;;;9.36;77.82;95233.78;4157799;28;20148;-58
2022/12/17 21:48:40;;;;;;;12.50;9.20;;;;;;;9.45;77.74;95236.53;4154791;28;20563;-56
2022/12/17 21:50:44;;;;;;;13.13;9.35;;;;;;;9.37;76.95;95240.66;4163611;28;20139;-56
2022/12/17 21:52:46;;;;;;;12.95;9.20;;;;;;;9.30;77.32;95242.19;4161929;28;20115;-60
2022/12/17 21:54:48;;;;;;;13.02;9.38;;;;;;;9.28;77.88;95243.28;4145511;28;20679;-60
2022/12/17 21:56:49;;;;;;;12.73;9.73;;;;;;;9.28;77.51;95251.94;4146626;28;20398;-59
2022/12/17 21:58:56;;;;;;;10.57;7.90;;;;;;;9.25;77.56;95254.00;4156600;28;20080;-58
2022/12/17 22:00:57;;;;;;;11.32;7.97;;;;;;;9.24;77.73;95245.34;4147021;28;20062;-58
2022/12/17 22:02:59;;;;;;;10.73;8.25;;;;;;;9.27;77.37;95245.09;4145864;28;20108;-58
2022/12/17 22:05:01;;;;;;;10.07;7.55;;;;;;;9.29;76.83;95244.94;4144107;28;20137;-59
2022/12/17 22:07:04;;;;;;;11.40;8.40;;;;;;;9.32;77.67;95242.88;4156916;28;20062;-57
2022/12/17 22:09:10;;;;;;;10.45;7.68;;;;;;;9.32;76.70;95253.31;4169265;28;20096;-61
2022/12/17 22:11:25;;;;;;;10.77;7.65;;;;;;;9.30;76.72;95243.97;4153206;28;20089;-60
2022/12/17 22:15:46;;;;;;;10.90;8.10;;;;;;;9.41;76.59;95252.50;4158068;28;20071;-57
2022/12/17 22:17:52;;;;;;;10.77;8.10;;;;;;;9.43;76.82;95253.19;4176970;28;20493;-56
2022/12/17 22:19:54;;;;;;;11.13;8.18;;;;;;;9.40;76.60;95253.47;4162009;28;20053;-60
2022/12/17 22:21:56;;;;;;;10.32;7.45;;;;;;;9.34;76.54;95254.03;4171522;28;20691;-61
2022/12/17 22:23:58;;;;;;;10.10;8.18;;;;;;;9.36;76.69;95259.13;4160383;28;20045;-59
2022/12/17 22:26:00;;;;;;;10.32;7.25;;;;;;;9.38;76.27;95262.44;4153900;28;20563;-59
2022/12/17 22:28:01;;;;;;;8.98;7.60;;;;;;;9.28;76.08;95262.41;4160057;28;20454;-61
2022/12/17 22:34:51;;;;;;;11.02;8.43;;;;;;;8.77;77.95;95264.25;4154815;28;20057;-60
2022/12/17 22:37:13;;;;;;;10.75;7.55;;;;;;;8.87;78.20;95263.47;4148888;28;20049;-60
2022/12/17 22:39:34;;;;;;;8.65;5.78;;;;;;;8.76;77.71;95267.84;4159423;28;20071;-59
2022/12/17 22:44:41;;;;;;;9.52;7.15;;;;;;;8.04;80.43;95276.59;4173406;28;20060;-57
2022/12/17 22:46:54;;;;;;;8.73;6.53;;;;;;;8.00;80.29;95281.25;4154418;28;20041;-56
2022/12/17 22:48:57;;;;;;;8.00;5.70;;;;;;;7.78;79.46;95278.78;4152753;28;20081;-59
2022/12/17 22:51:07;;;;;;;9.00;5.80;;;;;;;7.62;80.59;95278.41;4169590;28;21535;-58
2022/12/17 22:53:16;;;;;;;7.78;5.20;;;;;;;7.55;80.51;95286.72;4143617;28;20355;-58
2022/12/17 22:55:18;;;;;;;8.10;4.95;;;;;;;7.36;80.81;95287.41;4143170;28;20050;-58
2022/12/17 22:57:20;;;;;;;8.85;5.35;;;;;;;7.23;81.21;95286.75;4142367;28;20148;-60
2022/12/17 22:59:38;;;;;;;7.07;5.63;;;;;;;7.10;81.58;95289.53;4145568;28;20076;-59
2022/12/17 23:01:40;;;;;;;7.40;5.38;;;;;;;6.98;82.63;95293.91;4140533;28;20049;-58
2022/12/17 23:03:43;;;;;;;8.00;5.72;;;;;;;6.96;82.76;95297.59;4152993;28;20084;-56
2022/12/17 23:05:45;;;;;;;8.77;5.03;;;;;;;7.04;82.38;95289.19;4145338;28;20525;-55